Big Creek, California
Current Conditions -  °F | °C
As of 10:55 AM on Thursday 30 Oct 2014 (Local Time) from KMMH Reporting Station
Clear Clear  
Wind Chill: 52°   Ceiling: Unl
Heat Index: 52°   Visibility: 10mi
Dew Point: 21°   Wind: 7mph
Humidity: 30%   Direction: 140°SE
Pressure: 30.26"   Gusts: NA
Location:  37.2°N, 119.24°W
Report Text: KMMH 301755Z AUTO 14006KT 10SM CLR 11/M06 A3026 RMK AO1
Loading
Personal Weather Stations






























Interactive Weather Map
Tropical Storm Tracking
New forecast layout! Learn more

10-Day Weather Forecast

Advertisements
Track Severe Weather on mobile